createdAt,value
2022-09-09T00:00:50.900Z,69.98
2022-09-09T00:03:23.632Z,70.09
2022-09-09T00:06:00.474Z,70.76
2022-09-09T00:08:48.501Z,70.48
2022-09-09T00:11:30.714Z,71.10
2022-09-09T00:14:03.830Z,71.09
2022-09-09T00:16:36.235Z,71.37
2022-09-09T00:19:14.748Z,72.20
2022-09-09T00:22:05.895Z,72.87
2022-09-09T00:24:55.039Z,72.22
2022-09-09T00:27:46.650Z,72.97
2022-09-09T00:30:26.136Z,72.83
2022-09-09T00:33:01.587Z,73.05
2022-09-09T00:35:41.067Z,72.90
2022-09-09T00:38:18.221Z,73.35
2022-09-09T00:40:51.637Z,73.54
2022-09-09T00:43:32.251Z,73.51
2022-09-09T00:46:11.710Z,74.26
2022-09-09T00:49:25.021Z,73.94
2022-09-09T00:52:00.619Z,74.46
2022-09-09T00:54:49.752Z,74.38
2022-09-09T00:57:26.654Z,74.91
2022-09-09T01:00:07.101Z,75.18
2022-09-09T01:02:45.776Z,75.41
2022-09-09T01:05:23.550Z,75.16
2022-09-09T01:07:55.145Z,75.76
2022-09-09T01:10:52.402Z,75.49
2022-09-09T01:13:31.832Z,76.58
2022-09-09T01:16:02.196Z,76.63
2022-09-09T01:18:35.806Z,76.09
2022-09-09T01:21:34.348Z,76.35
2022-09-09T01:24:23.646Z,76.54
2022-09-09T01:26:56.236Z,77.38
2022-09-09T01:29:24.787Z,77.13
2022-09-09T01:32:01.103Z,77.49
2022-09-09T01:34:42.822Z,77.46
2022-09-09T01:37:14.785Z,77.25
2022-09-09T01:39:45.245Z,78.55
2022-09-09T01:42:16.994Z,78.03
2022-09-09T01:44:44.417Z,78.28
2022-09-09T01:47:12.111Z,78.37
2022-09-09T01:49:39.435Z,79.00
2022-09-09T01:52:07.331Z,79.39
2022-09-09T01:54:35.412Z,79.12
2022-09-09T01:57:20.107Z,79.41
2022-09-09T01:59:59.050Z,79.96
2022-09-09T02:02:35.850Z,80.55
2022-09-09T02:05:16.327Z,80.00
2022-09-09T02:07:53.019Z,80.76
2022-09-09T02:10:51.899Z,80.79
2022-09-09T02:13:22.851Z,80.99
2022-09-09T02:16:25.887Z,80.66
2022-09-09T02:19:05.395Z,80.45
2022-09-09T02:21:34.084Z,80.68
2022-09-09T02:24:05.851Z,80.66
2022-09-09T02:26:36.967Z,80.68
2022-09-09T02:29:08.080Z,80.85
2022-09-09T02:31:37.968Z,80.47
2022-09-09T02:34:13.481Z,80.72
2022-09-09T02:36:44.771Z,81.50
2022-09-09T02:39:12.311Z,81.63
2022-09-09T02:41:42.848Z,81.82
2022-09-09T02:44:20.828Z,82.63
2022-09-09T02:47:00.420Z,82.49
2022-09-09T02:49:41.361Z,81.59
2022-09-09T02:52:23.757Z,82.67
2022-09-09T02:54:56.740Z,82.76
2022-09-09T02:57:33.535Z,83.82
2022-09-09T03:00:01.619Z,83.34
2022-09-09T03:02:29.128Z,83.79
2022-09-09T03:04:56.235Z,84.57
2022-09-09T03:07:26.559Z,84.52
2022-09-09T03:09:56.131Z,84.45
2022-09-09T03:12:23.611Z,84.42
2022-09-09T03:14:54.691Z,84.71
2022-09-09T03:17:22.512Z,84.65
2022-09-09T03:19:50.830Z,84.42
2022-09-09T03:22:17.825Z,84.80
2022-09-09T03:24:44.857Z,84.96
2022-09-09T03:27:11.707Z,85.07
2022-09-09T03:29:38.842Z,85.30
2022-09-09T03:32:05.966Z,85.33
2022-09-09T03:34:33.321Z,85.66
2022-09-09T03:37:00.197Z,85.39
2022-09-09T03:39:27.371Z,85.75
2022-09-09T03:41:54.384Z,85.81
2022-09-09T03:44:21.375Z,86.14
2022-09-09T03:46:48.382Z,86.31
2022-09-09T03:49:15.412Z,86.06
2022-09-09T03:51:43.197Z,86.04
2022-09-09T03:54:11.552Z,85.79
2022-09-09T03:56:38.544Z,86.74
2022-09-09T03:59:05.768Z,86.47
2022-09-09T04:01:32.798Z,86.26
2022-09-09T04:03:59.946Z,86.56
2022-09-09T04:06:27.327Z,86.93
2022-09-09T04:08:54.494Z,86.89
2022-09-09T04:11:21.877Z,87.04
2022-09-09T04:13:48.996Z,87.29
2022-09-09T04:16:16.392Z,87.25
2022-09-09T04:18:44.209Z,87.71
2022-09-09T04:21:12.365Z,87.82
2022-09-09T04:23:40.531Z,87.77
2022-09-09T04:26:07.867Z,88.52
2022-09-09T04:28:36.981Z,88.41
2022-09-09T04:31:11.003Z,88.55
2022-09-09T04:33:40.370Z,88.57
2022-09-09T04:36:08.611Z,88.14
2022-09-09T04:38:35.893Z,88.29
2022-09-09T04:41:02.867Z,87.91
2022-09-09T04:43:32.320Z,87.67
2022-09-09T04:46:00.705Z,87.86
2022-09-09T04:48:28.668Z,88.04
2022-09-09T04:50:58.107Z,87.84
2022-09-09T04:53:26.593Z,88.17
2022-09-09T04:56:02.590Z,87.59
2022-09-09T04:58:30.903Z,87.53
2022-09-09T05:01:11.502Z,87.55
2022-09-09T05:03:38.949Z,87.79
2022-09-09T05:06:14.054Z,88.10
2022-09-09T05:08:59.768Z,87.08
2022-09-09T05:11:29.626Z,87.52
2022-09-09T05:13:57.995Z,87.11
2022-09-09T05:16:25.740Z,88.64
2022-09-09T05:18:52.879Z,86.38
2022-09-09T05:21:21.790Z,85.59
2022-09-09T05:23:49.059Z,86.42
2022-09-09T05:26:19.211Z,85.40
2022-09-09T05:28:47.393Z,85.41
2022-09-09T05:31:15.723Z,83.77
2022-09-09T05:33:47.137Z,82.03
2022-09-09T05:36:17.084Z,83.46
2022-09-09T05:38:45.567Z,81.18
2022-09-09T05:41:16.759Z,81.19
2022-09-09T05:43:48.384Z,80.95
2022-09-09T05:46:18.678Z,79.62
2022-09-09T05:48:47.586Z,77.09
2022-09-09T05:51:19.388Z,76.32
2022-09-09T05:53:47.114Z,75.76
2022-09-09T05:56:17.600Z,74.23
2022-09-09T05:58:50.899Z,72.88
2022-09-09T06:01:21.191Z,70.34
2022-09-09T06:03:49.949Z,68.42
2022-09-09T06:06:28.825Z,66.39
2022-09-09T06:08:59.389Z,63.27
2022-09-09T06:11:29.297Z,60.01
2022-09-09T06:13:56.238Z,55.50
2022-09-09T06:16:25.565Z,53.10
2022-09-09T06:18:54.336Z,52.55
2022-09-09T06:21:24.800Z,52.97
2022-09-09T06:23:58.973Z,51.27
2022-09-09T06:26:31.521Z,49.48
2022-09-09T06:28:59.412Z,47.12
2022-09-09T06:31:31.745Z,45.41
2022-09-09T06:34:00.072Z,44.49
2022-09-09T06:36:34.363Z,43.64
2022-09-09T06:39:02.028Z,42.79
2022-09-09T06:41:32.123Z,42.63
2022-09-09T06:43:59.463Z,41.78
2022-09-09T06:46:31.447Z,37.47
2022-09-09T06:49:00.194Z,38.31
2022-09-09T06:51:32.661Z,36.82
2022-09-09T06:54:01.574Z,37.60
2022-09-09T06:56:31.809Z,35.60
2022-09-09T06:59:05.212Z,36.28
2022-09-09T07:01:34.241Z,35.90
2022-09-09T07:04:02.319Z,35.08
2022-09-09T07:06:32.254Z,35.11
2022-09-09T07:09:02.623Z,35.09
2022-09-09T07:11:32.716Z,34.15
2022-09-09T07:14:00.998Z,34.13
2022-09-09T07:16:29.196Z,33.86
2022-09-09T07:18:59.438Z,32.59
2022-09-09T07:21:28.339Z,32.38
2022-09-09T07:23:55.781Z,32.25
2022-09-09T07:26:28.112Z,32.54
2022-09-09T07:28:57.261Z,32.57
2022-09-09T07:31:33.160Z,31.57
2022-09-09T07:34:01.437Z,31.62
2022-09-09T07:36:33.402Z,31.47
2022-09-09T07:39:14.657Z,31.55
2022-09-09T07:41:44.304Z,32.11
2022-09-09T07:44:26.010Z,31.83
2022-09-09T07:46:53.429Z,31.97
2022-09-09T07:49:27.436Z,31.83
2022-09-09T07:52:03.340Z,31.42
2022-09-09T07:54:30.409Z,31.78
2022-09-09T07:56:57.563Z,31.46
2022-09-09T07:59:25.351Z,31.46
2022-09-09T08:01:56.056Z,31.40
2022-09-09T08:04:25.222Z,31.33
2022-09-09T08:06:55.820Z,31.07
2022-09-09T08:09:26.371Z,31.07
2022-09-09T08:11:53.284Z,31.38
2022-09-09T08:14:20.714Z,31.49
2022-09-09T08:16:50.524Z,31.13
2022-09-09T08:19:18.538Z,31.17
2022-09-09T08:21:46.194Z,31.24
2022-09-09T08:24:15.910Z,30.43
2022-09-09T08:26:45.446Z,30.93
2022-09-09T08:29:14.363Z,30.81
2022-09-09T08:31:46.183Z,30.69
2022-09-09T08:34:13.529Z,30.70
2022-09-09T08:36:45.799Z,30.48
2022-09-09T08:39:16.251Z,30.77
2022-09-09T08:42:04.542Z,30.89
2022-09-09T08:44:48.883Z,31.27
2022-09-09T08:47:19.296Z,31.08
2022-09-09T08:49:57.046Z,30.47
2022-09-09T08:52:32.242Z,31.29
2022-09-09T08:55:26.532Z,31.05
2022-09-09T08:57:57.174Z,30.49
2022-09-09T09:00:30.959Z,31.13
2022-09-09T09:03:14.173Z,30.95
2022-09-09T09:06:23.978Z,30.35
2022-09-09T09:09:11.761Z,30.70
2022-09-09T09:11:48.651Z,30.75
2022-09-09T09:14:24.732Z,30.83
2022-09-09T09:17:08.555Z,30.63
2022-09-09T09:19:39.685Z,30.98
2022-09-09T09:22:32.816Z,31.17
2022-09-09T09:25:06.470Z,31.51
2022-09-09T09:27:53.516Z,31.01
2022-09-09T09:30:30.026Z,30.45
2022-09-09T09:33:24.968Z,31.41
2022-09-09T09:35:52.082Z,30.74
2022-09-09T09:41:08.211Z,31.21
2022-09-09T09:43:37.793Z,30.08
2022-09-09T09:46:17.625Z,30.73
2022-09-09T09:48:46.840Z,30.57
2022-09-09T09:51:19.357Z,30.57
2022-09-09T09:53:46.960Z,30.71
2022-09-09T09:56:27.387Z,31.58
2022-09-09T09:58:56.605Z,31.81
2022-09-09T10:01:34.439Z,31.03
2022-09-09T10:04:19.915Z,30.99
2022-09-09T10:06:47.959Z,31.32
2022-09-09T10:09:27.221Z,31.47
2022-09-09T10:11:54.154Z,31.52
2022-09-09T10:14:26.560Z,32.05
2022-09-09T10:17:00.890Z,30.92
2022-09-09T10:19:34.879Z,31.99
2022-09-09T10:22:31.113Z,32.04
2022-09-09T10:25:13.450Z,32.06
2022-09-09T10:27:55.516Z,32.04
2022-09-09T10:30:38.835Z,32.00
2022-09-09T10:33:33.656Z,31.72
2022-09-09T10:36:20.815Z,31.61
2022-09-09T10:38:51.645Z,32.63
2022-09-09T10:41:27.474Z,33.04
2022-09-09T10:44:21.132Z,32.11
2022-09-09T10:47:11.511Z,31.75
2022-09-09T10:50:02.203Z,32.19
2022-09-09T10:52:56.157Z,32.30
2022-09-09T10:55:38.922Z,32.01
2022-09-09T10:58:08.834Z,31.93
2022-09-09T11:00:53.729Z,32.21
2022-09-09T11:03:30.768Z,32.14
2022-09-09T11:06:08.127Z,31.77
2022-09-09T11:08:40.434Z,31.89
2022-09-09T11:11:41.067Z,31.67
2022-09-09T11:14:27.314Z,31.97
2022-09-09T11:17:03.738Z,31.92
2022-09-09T11:19:45.414Z,32.09
2022-09-09T11:22:28.984Z,31.70
2022-09-09T11:25:06.901Z,32.18
2022-09-09T11:28:17.387Z,31.95
2022-09-09T11:31:03.248Z,31.78
2022-09-09T11:33:54.844Z,31.71
2022-09-09T11:36:31.575Z,32.33
2022-09-09T11:39:04.304Z,32.01
2022-09-09T11:41:37.908Z,32.46
2022-09-09T11:44:28.067Z,31.92
2022-09-09T11:46:55.430Z,32.65
2022-09-09T11:49:29.976Z,32.76
2022-09-09T11:51:57.191Z,32.79
2022-09-09T11:54:32.057Z,31.71
2022-09-09T11:56:59.994Z,32.15
2022-09-09T11:59:30.371Z,32.62
2022-09-09T12:02:20.058Z,32.44
2022-09-09T12:05:10.854Z,31.69
2022-09-09T12:07:43.982Z,31.75
2022-09-09T12:10:41.257Z,32.11
2022-09-09T12:13:26.257Z,32.10
2022-09-09T12:15:56.316Z,32.15
2022-09-09T12:18:37.968Z,31.89
2022-09-09T12:21:14.624Z,32.92
2022-09-09T12:23:52.023Z,33.27
2022-09-09T12:26:37.110Z,33.79
2022-09-09T12:29:14.420Z,34.18
2022-09-09T12:31:52.736Z,33.79
2022-09-09T12:34:45.723Z,34.40
2022-09-09T12:37:34.281Z,35.09
2022-09-09T12:40:05.090Z,35.25
2022-09-09T12:42:41.041Z,35.29
2022-09-09T12:45:21.988Z,35.68
2022-09-09T12:47:55.230Z,36.19
2022-09-09T12:50:34.951Z,36.81
2022-09-09T12:53:19.088Z,36.63
2022-09-09T12:56:05.843Z,37.66
2022-09-09T12:58:36.043Z,37.66
2022-09-09T13:01:08.133Z,37.74
2022-09-09T13:03:44.634Z,37.65
2022-09-09T13:06:15.548Z,37.98
2022-09-09T13:08:42.624Z,38.80
2022-09-09T13:11:17.423Z,39.06
2022-09-09T13:13:52.954Z,39.14
2022-09-09T13:16:43.037Z,39.97
2022-09-09T13:19:18.046Z,38.75
2022-09-09T13:21:45.553Z,39.70
2022-09-09T13:24:43.717Z,39.31
2022-09-09T13:27:40.166Z,39.38
2022-09-09T13:30:26.657Z,39.66
2022-09-09T13:33:24.595Z,39.64
2022-09-09T13:36:07.888Z,39.69
2022-09-09T13:38:39.630Z,38.97
2022-09-09T13:41:09.461Z,39.51
2022-09-09T13:43:50.969Z,39.62
2022-09-09T13:46:32.725Z,39.24
2022-09-09T13:49:11.834Z,40.58
2022-09-09T13:51:41.356Z,39.48
2022-09-09T13:54:11.289Z,39.80
2022-09-09T13:56:40.213Z,38.82
2022-09-09T13:59:11.938Z,39.66
2022-09-09T14:01:39.203Z,40.00
2022-09-09T14:04:10.183Z,39.46
2022-09-09T14:06:40.621Z,39.01
2022-09-09T14:09:10.039Z,38.83
2022-09-09T14:11:36.994Z,38.79
2022-09-09T14:14:04.172Z,39.15
2022-09-09T14:16:34.100Z,39.85
2022-09-09T14:19:01.156Z,39.97
2022-09-09T14:21:29.483Z,40.25
2022-09-09T14:23:56.475Z,39.80
2022-09-09T14:26:24.639Z,40.10
2022-09-09T14:28:56.381Z,40.44
2022-09-09T14:31:24.826Z,40.54
2022-09-09T14:33:52.701Z,40.48
2022-09-09T14:36:20.058Z,40.74
2022-09-09T14:38:47.700Z,40.54
2022-09-09T14:41:20.890Z,40.27
2022-09-09T14:43:48.107Z,41.02
2022-09-09T14:46:17.664Z,41.29
2022-09-09T14:48:47.652Z,41.66
2022-09-09T14:51:26.135Z,41.35
2022-09-09T14:53:54.653Z,42.37
2022-09-09T14:56:25.616Z,41.81
2022-09-09T14:58:56.618Z,42.07
2022-09-09T15:01:25.485Z,42.32
2022-09-09T15:04:01.098Z,41.34
2022-09-09T15:06:30.511Z,42.25
2022-09-09T15:09:01.389Z,42.16
2022-09-09T15:11:31.728Z,42.13
2022-09-09T15:13:59.428Z,41.99
2022-09-09T15:16:29.366Z,41.83
2022-09-09T15:18:58.707Z,42.40
2022-09-09T15:21:29.560Z,42.66
2022-09-09T15:23:57.735Z,42.28
2022-09-09T15:26:25.342Z,43.14
2022-09-09T15:28:52.597Z,43.42
2022-09-09T15:31:31.694Z,43.01
2022-09-09T15:34:04.265Z,44.28
2022-09-09T15:36:39.756Z,44.70
2022-09-09T15:39:11.062Z,45.61
2022-09-09T15:41:38.221Z,44.77
2022-09-09T15:44:05.746Z,44.71
2022-09-09T15:46:38.660Z,44.88
2022-09-09T15:49:23.322Z,44.81
2022-09-09T15:51:56.201Z,45.35
2022-09-09T15:54:25.909Z,44.92
2022-09-09T15:56:59.672Z,45.55
2022-09-09T15:59:54.630Z,45.54
2022-09-09T16:02:22.557Z,45.21
2022-09-09T16:04:50.059Z,46.03
2022-09-09T16:07:17.506Z,45.49
2022-09-09T16:09:45.105Z,45.65
2022-09-09T16:12:23.388Z,46.58
2022-09-09T16:16:09.731Z,47.52
2022-09-09T16:18:22.055Z,47.39
2022-09-09T16:20:56.421Z,47.49
2022-09-09T16:26:49.627Z,49.44
2022-09-09T16:29:18.553Z,49.96
2022-09-09T16:31:47.446Z,50.68
2022-09-09T16:34:15.978Z,51.23
2022-09-09T16:36:44.973Z,51.17
2022-09-09T16:39:14.788Z,53.00
2022-09-09T16:41:43.562Z,53.71
2022-09-09T16:44:13.453Z,54.31
2022-09-09T16:46:43.853Z,54.65
2022-09-09T16:49:13.358Z,55.18
2022-09-09T16:51:47.030Z,55.74
2022-09-09T16:54:15.528Z,56.32
2022-09-09T16:56:45.111Z,56.64
2022-09-09T16:59:20.549Z,57.22
2022-09-09T17:01:49.794Z,57.27
2022-09-09T17:04:21.993Z,57.78
2022-09-09T17:06:51.065Z,59.12
2022-09-09T17:09:19.490Z,58.96
2022-09-09T17:11:52.176Z,59.62
2022-09-09T17:14:21.448Z,60.28
2022-09-09T17:17:30.578Z,60.32
2022-09-09T17:20:21.083Z,60.11
2022-09-09T17:22:48.446Z,60.67
2022-09-09T17:25:28.257Z,61.66
2022-09-09T17:27:55.398Z,61.47
2022-09-09T17:30:23.547Z,62.24
2022-09-09T17:33:18.794Z,62.23
2022-09-09T17:35:46.467Z,63.55
2022-09-09T17:38:13.818Z,63.62
2022-09-09T17:40:41.119Z,63.77
2022-09-09T17:43:11.443Z,64.26
2022-09-09T17:45:59.230Z,64.73
2022-09-09T17:48:27.439Z,64.55
2022-09-09T17:51:05.805Z,65.29
2022-09-09T17:53:39.259Z,64.30
2022-09-09T17:56:27.679Z,64.89
2022-09-09T17:58:55.192Z,65.78
2022-09-09T18:01:23.650Z,65.92
2022-09-09T18:03:52.111Z,66.82
2022-09-09T18:06:22.544Z,68.19
2022-09-09T18:08:57.650Z,68.63
2022-09-09T18:11:43.884Z,68.07
2022-09-09T18:14:15.779Z,68.78
2022-09-09T18:16:43.189Z,68.91
2022-09-09T18:19:14.126Z,70.18
2022-09-09T18:21:43.179Z,70.08
2022-09-09T18:24:16.007Z,69.90
2022-09-09T18:26:43.408Z,70.02
2022-09-09T18:29:14.441Z,70.74
2022-09-09T18:31:54.245Z,70.95
2022-09-09T18:34:23.457Z,70.79
2022-09-09T18:37:00.209Z,70.94
2022-09-09T18:39:29.585Z,71.49
2022-09-09T18:42:01.813Z,71.56
2022-09-09T18:44:32.887Z,72.60
2022-09-09T18:47:00.509Z,72.13
2022-09-09T18:49:27.404Z,72.81
2022-09-09T18:51:54.600Z,73.14
2022-09-09T18:54:25.050Z,73.57
2022-09-09T18:56:54.462Z,73.97
2022-09-09T18:59:24.407Z,73.48
2022-09-09T19:01:55.726Z,74.34
2022-09-09T19:04:32.423Z,74.76
2022-09-09T19:07:00.308Z,75.35
2022-09-09T19:09:31.923Z,75.64
2022-09-09T19:12:00.958Z,76.13
2022-09-09T19:14:28.931Z,76.23
2022-09-09T19:16:56.968Z,76.39
2022-09-09T19:19:27.989Z,77.45
2022-09-09T19:21:58.709Z,77.41
2022-09-09T19:24:31.830Z,77.02
2022-09-09T19:27:06.121Z,78.13
2022-09-09T19:29:36.759Z,78.39
2022-09-09T19:32:51.751Z,78.78
2022-09-09T19:34:52.642Z,79.30
2022-09-09T19:37:20.220Z,79.66
2022-09-09T19:39:48.509Z,80.19
2022-09-09T19:42:25.369Z,79.76
2022-09-09T19:44:52.533Z,79.89
2022-09-09T19:47:20.256Z,80.05
2022-09-09T19:49:52.683Z,80.31
2022-09-09T19:52:29.450Z,80.97
2022-09-09T19:54:56.605Z,81.35
2022-09-09T19:57:23.916Z,81.95
2022-09-09T19:59:50.913Z,82.18
2022-09-09T20:02:17.886Z,82.11
2022-09-09T20:04:45.075Z,81.73
2022-09-09T20:07:12.585Z,82.17
2022-09-09T20:09:39.581Z,81.81
2022-09-09T20:12:06.736Z,82.05
2022-09-09T20:14:39.146Z,82.31
2022-09-09T20:17:07.191Z,82.51
2022-09-09T20:19:35.069Z,82.68
2022-09-09T20:22:02.111Z,82.40
2022-09-09T20:24:29.124Z,82.59
2022-09-09T20:26:56.715Z,82.50
2022-09-09T20:29:23.852Z,83.22
2022-09-09T20:31:50.895Z,83.12
2022-09-09T20:34:22.049Z,82.99
2022-09-09T20:36:50.489Z,83.37
2022-09-09T20:39:22.715Z,83.59
2022-09-09T20:41:50.457Z,84.27
2022-09-09T20:44:18.517Z,84.84
2022-09-09T20:46:51.063Z,86.26
2022-09-09T20:49:20.840Z,86.20
2022-09-09T20:51:50.650Z,86.49
2022-09-09T20:54:23.634Z,86.64
2022-09-09T20:56:52.439Z,87.09
2022-09-09T20:59:21.731Z,86.81
2022-09-09T21:01:49.086Z,86.61
2022-09-09T21:04:23.063Z,86.53
2022-09-09T21:06:51.799Z,86.97
2022-09-09T21:09:19.900Z,87.07
2022-09-09T21:11:49.999Z,87.03
2022-09-09T21:14:18.806Z,86.98
2022-09-09T21:16:46.371Z,87.17
2022-09-09T21:19:13.473Z,87.65
2022-09-09T21:21:40.859Z,87.62
2022-09-09T21:24:08.121Z,87.36
2022-09-09T21:26:36.025Z,87.16
2022-09-09T21:29:04.178Z,87.12
2022-09-09T21:31:31.680Z,87.51
2022-09-09T21:33:59.695Z,88.09
2022-09-09T21:36:28.707Z,88.05
2022-09-09T21:38:56.998Z,88.19
2022-09-09T21:41:23.951Z,88.09
2022-09-09T21:43:54.425Z,88.31
2022-09-09T21:46:23.648Z,88.46
2022-09-09T21:48:51.273Z,88.50
2022-09-09T21:51:19.182Z,88.33
2022-09-09T21:53:46.760Z,88.05
2022-09-09T21:56:17.576Z,88.30
2022-09-09T21:58:45.487Z,88.26
2022-09-09T22:01:15.848Z,88.55
2022-09-09T22:03:44.194Z,88.46
2022-09-09T22:06:14.145Z,88.61
2022-09-09T22:08:41.274Z,88.51
2022-09-09T22:11:16.912Z,88.36
2022-09-09T22:13:47.511Z,89.08
2022-09-09T22:16:19.312Z,88.84
2022-09-09T22:18:55.177Z,89.20
2022-09-09T22:21:23.059Z,89.47
2022-09-09T22:23:59.718Z,89.00
2022-09-09T22:26:29.230Z,89.62
2022-09-09T22:28:57.903Z,89.23
2022-09-09T22:31:29.456Z,89.11
2022-09-09T22:33:56.504Z,89.35
2022-09-09T22:36:24.509Z,89.12
2022-09-09T22:38:52.090Z,89.11
2022-09-09T22:41:20.223Z,89.00
2022-09-09T22:43:48.141Z,88.87
2022-09-09T22:46:15.602Z,88.82
2022-09-09T22:48:44.072Z,88.83
2022-09-09T22:51:13.194Z,88.83
2022-09-09T22:53:42.072Z,89.08
2022-09-09T22:56:13.713Z,89.04
2022-09-09T22:58:40.575Z,88.74
2022-09-09T23:01:17.548Z,88.69
2022-09-09T23:03:48.510Z,89.12
2022-09-09T23:06:22.536Z,89.09
2022-09-09T23:08:58.450Z,89.12
2022-09-09T23:11:30.653Z,89.75
2022-09-09T23:14:00.759Z,89.26
2022-09-09T23:16:34.160Z,90.42
2022-09-09T23:19:02.251Z,90.41
2022-09-09T23:21:30.529Z,89.79
2022-09-09T23:23:59.637Z,89.62
2022-09-09T23:26:29.082Z,89.99
2022-09-09T23:28:58.745Z,89.97
2022-09-09T23:31:27.487Z,90.25
2022-09-09T23:33:55.191Z,90.85
2022-09-09T23:36:25.113Z,91.24
2022-09-09T23:38:56.512Z,90.58
2022-09-09T23:41:23.760Z,90.78
2022-09-09T23:43:52.748Z,90.54
2022-09-09T23:46:23.001Z,90.29
2022-09-09T23:48:52.007Z,90.50
2022-09-09T23:51:24.211Z,90.18
2022-09-09T23:53:53.635Z,89.76
2022-09-09T23:56:22.750Z,89.49
2022-09-09T23:58:51.271Z,89.46
